Time;durP1;ratioP1;P1;durP2;ratioP2;P2;SDS_P1;SDS_P2;PMS_P1;PMS_P2;Temp;Humidity;BMP_temperature;BMP_pressure;BME280_temperature;BME280_humidity;BME280_pressure;Samples;Min_cycle;Max_cycle;Signal;HPM_P1;HPM_P2
2020/12/01 00:01:27;;;;;;;114.97;54.20;;;;;;;0.07;75.10;99506.95;2177999;81;21078;-77
2020/12/01 00:04:28;;;;;;;117.97;57.00;;;;;;;0.08;75.02;99501.02;2178073;81;21671;-79
2020/12/01 00:07:29;;;;;;;126.90;62.03;;;;;;;0.08;74.95;99497.56;2178164;81;21094;-78
2020/12/01 00:10:34;;;;;;;114.77;56.77;;;;;;;0.02;74.79;99499.35;2178262;81;21493;-78
2020/12/01 00:13:34;;;;;;;124.00;59.27;;;;;;;-0.08;74.73;99497.84;2178569;81;21146;-79
2020/12/01 00:16:35;;;;;;;116.97;56.43;;;;;;;-0.20;74.70;99500.91;2178699;81;21428;-78
2020/12/01 00:19:36;;;;;;;122.50;60.57;;;;;;;-0.33;74.71;99503.08;2178943;81;21098;-79
2020/12/01 00:22:38;;;;;;;116.77;58.47;;;;;;;-0.46;74.78;99498.34;2178627;81;21264;-79
2020/12/01 00:25:39;;;;;;;121.33;57.40;;;;;;;-0.57;74.90;99500.20;2179109;81;21275;-79
2020/12/01 00:28:40;;;;;;;121.23;55.43;;;;;;;-0.68;75.06;99496.94;2178745;81;21138;-79
2020/12/01 00:31:41;;;;;;;115.63;55.43;;;;;;;-0.76;75.26;99496.83;2179174;82;21263;-78
2020/12/01 00:34:42;;;;;;;117.53;57.30;;;;;;;-0.84;75.25;99500.55;2178746;81;21146;-78
2020/12/01 00:37:43;;;;;;;111.73;53.73;;;;;;;-0.92;75.34;99499.52;2179260;81;21272;-79
2020/12/01 00:40:44;;;;;;;123.10;59.53;;;;;;;-0.98;75.59;99503.44;2178857;81;21150;-78
2020/12/01 00:43:45;;;;;;;107.47;53.17;;;;;;;-1.01;75.71;99496.83;2178576;81;21154;-77
2020/12/01 00:46:47;;;;;;;120.67;58.93;;;;;;;-1.05;75.75;99492.28;2177899;81;21322;-79
2020/12/01 00:49:48;;;;;;;105.87;50.27;;;;;;;-1.10;75.86;99490.20;2178499;81;21439;-78
2020/12/01 00:52:49;;;;;;;118.93;56.20;;;;;;;-1.14;75.98;99488.21;2167426;81;21339;-78
2020/12/01 00:55:50;;;;;;;121.50;55.07;;;;;;;-1.17;75.98;99491.45;2160913;82;21225;-78
2020/12/01 00:58:51;;;;;;;115.07;53.70;;;;;;;-1.18;76.18;99490.96;2161480;82;21588;-78
2020/12/01 01:01:52;;;;;;;108.97;54.33;;;;;;;-1.20;76.10;99484.84;2160469;82;21237;-78
2020/12/01 01:04:53;;;;;;;107.87;53.53;;;;;;;-1.23;76.19;99479.91;2160966;82;21536;-79
2020/12/01 01:07:54;;;;;;;117.20;56.53;;;;;;;-1.25;76.30;99482.36;2161304;82;21262;-78
2020/12/01 01:10:56;;;;;;;108.60;54.60;;;;;;;-1.28;76.39;99473.19;2161284;82;21285;-78
2020/12/01 01:13:57;;;;;;;112.03;54.00;;;;;;;-1.30;76.38;99470.92;2161268;82;21273;-78
2020/12/01 01:17:01;;;;;;;110.37;54.17;;;;;;;-1.33;76.46;99467.76;2161633;82;21457;-78
2020/12/01 01:20:02;;;;;;;110.07;56.03;;;;;;;-1.32;76.33;99471.20;2161797;82;21135;-77
2020/12/01 01:23:03;;;;;;;100.47;49.87;;;;;;;-1.35;76.46;99469.72;2160535;82;21273;-77
2020/12/01 01:26:04;;;;;;;104.33;51.13;;;;;;;-1.36;76.67;99473.06;2160562;82;21405;-78
2020/12/01 01:29:05;;;;;;;101.53;52.43;;;;;;;-1.42;76.56;99458.56;2160892;82;21296;-78
2020/12/01 01:32:06;;;;;;;109.23;53.90;;;;;;;-1.48;76.61;99463.27;2160519;82;21261;-77
2020/12/01 01:35:07;;;;;;;94.10;48.37;;;;;;;-1.50;76.62;99458.03;2161078;82;21167;-77
2020/12/01 01:38:11;;;;;;;106.77;52.47;;;;;;;-1.52;76.83;99452.31;2161396;82;21254;-77
2020/12/01 01:41:12;;;;;;;111.90;55.53;;;;;;;-1.57;76.86;99449.44;2161241;82;21319;-78
2020/12/01 01:44:13;;;;;;;106.93;55.40;;;;;;;-1.56;76.87;99456.34;2160275;82;21257;-78
2020/12/01 01:47:14;;;;;;;114.00;53.67;;;;;;;-1.57;76.78;99449.83;2160397;82;21245;-78
2020/12/01 01:50:15;;;;;;;102.57;48.37;;;;;;;-1.59;76.78;99451.00;2160675;82;21533;-79
2020/12/01 01:53:16;;;;;;;104.57;52.77;;;;;;;-1.64;76.75;99455.81;2160240;82;21286;-78
2020/12/01 01:56:17;;;;;;;111.23;55.17;;;;;;;-1.63;77.04;99449.02;2160729;82;21524;-78
2020/12/01 01:59:19;;;;;;;103.60;50.93;;;;;;;-1.63;76.88;99449.02;2160995;82;21265;-78
2020/12/01 02:02:20;;;;;;;103.63;53.90;;;;;;;-1.63;76.88;99448.62;2161289;82;21269;-77
2020/12/01 02:05:21;;;;;;;98.83;52.10;;;;;;;-1.57;76.97;99443.43;2160789;82;21539;-78
2020/12/01 02:08:22;;;;;;;104.57;53.13;;;;;;;-1.49;77.00;99444.84;2161320;82;21182;-78
2020/12/01 02:11:23;;;;;;;105.23;52.03;;;;;;;-1.40;77.05;99441.23;2161526;82;21142;-79
2020/12/01 02:14:25;;;;;;;110.83;54.63;;;;;;;-1.34;77.14;99440.38;2161287;82;21134;-78
2020/12/01 02:17:26;;;;;;;109.53;54.10;;;;;;;-1.27;76.98;99444.63;2161563;82;21263;-78
2020/12/01 02:20:27;;;;;;;104.93;55.23;;;;;;;-1.23;76.84;99444.94;2161615;82;21241;-79
2020/12/01 02:23:28;;;;;;;92.20;46.70;;;;;;;-1.18;76.82;99442.29;2161149;82;21257;-78
2020/12/01 02:26:30;;;;;;;105.60;55.77;;;;;;;-1.15;76.74;99445.45;2161388;82;21146;-78
2020/12/01 02:29:31;;;;;;;103.27;49.87;;;;;;;-1.11;76.76;99444.47;2161281;82;21906;-78
2020/12/01 02:32:32;;;;;;;108.87;53.63;;;;;;;-1.04;76.62;99438.97;2161476;82;21254;-78
2020/12/01 02:35:33;;;;;;;100.13;51.10;;;;;;;-1.01;76.57;99444.69;2161615;82;21520;-78
2020/12/01 02:38:34;;;;;;;99.60;50.30;;;;;;;-0.98;76.62;99441.05;2161494;82;21250;-78
2020/12/01 02:41:35;;;;;;;96.37;51.33;;;;;;;-0.93;76.58;99434.95;2161679;82;21516;-78
2020/12/01 02:44:36;;;;;;;112.57;54.33;;;;;;;-0.92;76.48;99432.48;2161507;82;21275;-79
2020/12/01 02:47:37;;;;;;;98.57;49.07;;;;;;;-0.89;76.48;99428.84;2161496;82;21539;-78
2020/12/01 02:50:38;;;;;;;112.67;55.50;;;;;;;-0.86;76.41;99425.62;2161198;82;21276;-78
2020/12/01 02:53:39;;;;;;;108.47;54.63;;;;;;;-0.86;76.46;99426.91;2160679;82;21562;-77
2020/12/01 02:56:40;;;;;;;97.90;49.97;;;;;;;-0.83;76.42;99429.67;2161142;82;21123;-78
2020/12/01 02:59:43;;;;;;;100.00;50.63;;;;;;;-0.84;76.25;99424.05;2160557;82;21289;-78
2020/12/01 03:02:45;;;;;;;102.13;49.63;;;;;;;-0.87;76.27;99425.98;2161384;82;21126;-78
2020/12/01 03:05:46;;;;;;;113.20;50.47;;;;;;;-0.93;76.17;99421.73;2161312;82;21253;-78
2020/12/01 03:08:47;;;;;;;99.97;49.83;;;;;;;-1.01;76.12;99425.08;2161384;82;21154;-78
2020/12/01 03:11:48;;;;;;;106.50;51.50;;;;;;;-1.10;76.11;99422.30;2161583;82;21095;-78
2020/12/01 03:14:49;;;;;;;109.47;53.13;;;;;;;-1.16;76.02;99420.61;2161342;82;21269;-78
2020/12/01 03:17:50;;;;;;;102.20;49.33;;;;;;;-1.23;76.22;99426.11;2161569;82;21266;-77
2020/12/01 03:20:51;;;;;;;95.77;48.10;;;;;;;-1.29;76.14;99423.64;2161704;82;21106;-77
2020/12/01 03:23:52;;;;;;;97.43;49.90;;;;;;;-1.34;76.28;99418.59;2161175;82;21288;-77
2020/12/01 03:26:54;;;;;;;98.60;50.30;;;;;;;-1.37;76.27;99422.63;2161165;82;21253;-78
2020/12/01 03:29:55;;;;;;;94.37;48.20;;;;;;;-1.42;76.17;99423.59;2161263;82;21281;-79
2020/12/01 03:32:56;;;;;;;97.63;48.50;;;;;;;-1.44;76.25;99423.89;2161075;82;21501;-79
2020/12/01 03:35:57;;;;;;;104.07;50.97;;;;;;;-1.46;76.28;99426.73;2161538;82;21242;-79
2020/12/01 03:38:58;;;;;;;106.30;52.73;;;;;;;-1.51;76.12;99421.70;2161582;82;21269;-79
2020/12/01 03:41:59;;;;;;;96.90;51.07;;;;;;;-1.54;76.31;99418.92;2161651;82;21261;-78
2020/12/01 03:45:00;;;;;;;102.03;50.80;;;;;;;-1.57;76.17;99423.84;2161365;82;21424;-77
2020/12/01 03:48:01;;;;;;;99.97;49.23;;;;;;;-1.60;76.32;99422.34;2161623;82;21289;-79
2020/12/01 03:51:03;;;;;;;101.43;49.07;;;;;;;-1.62;76.34;99415.84;2161404;82;21134;-79
2020/12/01 03:54:04;;;;;;;100.47;51.57;;;;;;;-1.64;76.33;99426.77;2174328;81;21118;-79
2020/12/01 03:57:05;;;;;;;99.40;48.63;;;;;;;-1.70;76.36;99413.55;2178221;81;21440;-78
2020/12/01 04:00:06;;;;;;;99.70;48.23;;;;;;;-1.69;76.50;99408.92;2178252;81;21133;-78
2020/12/01 04:03:07;;;;;;;102.07;49.73;;;;;;;-1.73;76.54;99405.66;2177783;81;21424;-78
2020/12/01 04:06:08;;;;;;;97.07;47.60;;;;;;;-1.73;76.48;99405.27;2178543;81;21102;-78
2020/12/01 04:09:10;;;;;;;94.97;48.10;;;;;;;-1.73;76.60;99410.78;2179395;81;21550;-78
2020/12/01 04:12:11;;;;;;;98.33;46.33;;;;;;;-1.79;76.65;99399.69;2178616;81;21138;-78
2020/12/01 04:15:12;;;;;;;92.63;47.33;;;;;;;-1.82;76.71;99396.03;2179357;81;21261;-80
2020/12/01 04:18:13;;;;;;;98.03;50.27;;;;;;;-1.85;76.69;99391.59;2179149;81;21142;-79
2020/12/01 04:21:14;;;;;;;96.67;49.50;;;;;;;-1.87;76.62;99394.83;2179209;82;21133;-79
2020/12/01 04:24:15;;;;;;;98.33;48.83;;;;;;;-1.86;76.85;99397.89;2178912;81;21142;-79
2020/12/01 04:27:16;;;;;;;97.73;47.93;;;;;;;-1.85;76.85;99400.55;2178514;81;21449;-79
2020/12/01 04:30:18;;;;;;;96.20;47.27;;;;;;;-1.86;76.71;99397.50;2177673;81;21336;-78
2020/12/01 04:33:19;;;;;;;98.77;49.20;;;;;;;-1.85;76.69;99396.71;2177409;81;21248;-78
2020/12/01 04:36:20;;;;;;;98.63;49.03;;;;;;;-1.83;76.81;99398.09;2177765;81;21145;-78
2020/12/01 04:39:21;;;;;;;89.03;43.63;;;;;;;-1.79;76.73;99390.73;2177616;82;21299;-79
2020/12/01 04:42:22;;;;;;;73.37;36.60;;;;;;;-1.78;76.79;99395.07;2176998;81;21157;-78
2020/12/01 04:45:23;;;;;;;88.67;45.17;;;;;;;-1.80;76.82;99395.36;2176641;81;21313;-78
2020/12/01 04:48:24;;;;;;;101.27;48.53;;;;;;;-1.82;76.63;99394.37;2175936;81;21304;-77
2020/12/01 04:51:25;;;;;;;77.57;40.77;;;;;;;-1.86;76.75;99394.05;2175044;81;21523;-77
2020/12/01 04:54:26;;;;;;;95.57;49.17;;;;;;;-1.90;76.84;99388.23;2161392;81;21284;-79
2020/12/01 04:57:27;;;;;;;93.03;44.93;;;;;;;-1.96;76.95;99392.14;2158908;82;21269;-79
2020/12/01 05:00:29;;;;;;;94.73;46.27;;;;;;;-1.96;76.88;99387.02;2159110;82;21234;-79
2020/12/01 05:03:30;;;;;;;95.93;46.63;;;;;;;-1.98;76.89;99383.47;2158009;82;21582;-78
2020/12/01 05:06:38;;;;;;;91.63;46.70;;;;;;;-1.99;76.95;99388.09;2159131;82;21252;-79
2020/12/01 05:09:35;;;;;;;98.17;49.23;;;;;;;-1.99;77.17;99389.37;2159025;82;21642;-79
2020/12/01 05:12:37;;;;;;;87.97;44.90;;;;;;;-2.00;77.22;99385.03;2159241;82;21260;-78
2020/12/01 05:15:38;;;;;;;88.70;44.40;;;;;;;-2.01;77.34;99386.20;2160154;82;21249;-80
2020/12/01 05:18:40;;;;;;;79.37;39.33;;;;;;;-2.02;77.39;99385.31;2160905;82;21261;-80
2020/12/01 05:21:41;;;;;;;81.80;41.93;;;;;;;-2.02;77.51;99377.64;2159595;82;21374;-78
2020/12/01 05:24:42;;;;;;;88.20;41.63;;;;;;;-2.04;77.50;99371.92;2159453;82;21253;-80
2020/12/01 05:27:43;;;;;;;88.77;43.10;;;;;;;-2.07;77.59;99375.16;2158378;82;21265;-78
2020/12/01 05:30:45;;;;;;;90.00;44.20;;;;;;;-2.08;77.66;99371.21;2158497;82;21309;-79
2020/12/01 05:33:46;;;;;;;88.80;45.40;;;;;;;-2.11;77.78;99372.28;2158804;82;21241;-79
2020/12/01 05:36:47;;;;;;;96.63;43.97;;;;;;;-2.11;77.73;99369.33;2159087;82;21114;-78
2020/12/01 05:39:48;;;;;;;88.43;43.43;;;;;;;-2.12;77.83;99362.83;2159121;82;21261;-78
2020/12/01 05:42:49;;;;;;;90.10;43.60;;;;;;;-2.12;77.82;99366.67;2158487;82;21257;-79
2020/12/01 05:45:50;;;;;;;82.70;38.87;;;;;;;-2.13;77.72;99364.89;2158814;82;21253;-80
2020/12/01 05:48:51;;;;;;;94.80;44.57;;;;;;;-2.13;77.82;99361.95;2159134;82;21311;-80
2020/12/01 05:51:52;;;;;;;80.57;41.50;;;;;;;-2.13;77.79;99364.50;2157712;82;21265;-80
2020/12/01 05:54:54;;;;;;;89.53;42.13;;;;;;;-2.10;77.85;99360.87;2174630;81;21264;-79
2020/12/01 05:57:55;;;;;;;82.57;41.97;;;;;;;-2.07;77.85;99358.53;2176843;81;21304;-77
2020/12/01 06:00:56;;;;;;;82.50;40.03;;;;;;;-2.09;77.70;99360.48;2175677;81;21244;-80
2020/12/01 06:03:57;;;;;;;83.23;40.97;;;;;;;-2.10;77.73;99365.11;2176567;81;21253;-78
2020/12/01 06:06:58;;;;;;;75.87;38.67;;;;;;;-2.09;77.80;99373.27;2176783;81;21316;-79
2020/12/01 06:10:00;;;;;;;85.93;41.43;;;;;;;-2.11;77.95;99377.00;2175960;82;21185;-77
2020/12/01 06:13:01;;;;;;;78.83;40.97;;;;;;;-2.11;77.75;99375.73;2176574;82;21252;-77
2020/12/01 06:16:02;;;;;;;71.97;35.53;;;;;;;-2.14;77.79;99375.52;2176171;82;21260;-78
2020/12/01 06:19:03;;;;;;;75.27;36.70;;;;;;;-2.10;77.84;99380.06;2176610;82;21277;-78
2020/12/01 06:22:05;;;;;;;82.37;38.67;;;;;;;-2.07;77.86;99385.39;2175360;82;21158;-79
2020/12/01 06:25:06;;;;;;;78.33;37.50;;;;;;;-2.08;77.63;99383.61;2176844;81;21583;-81
2020/12/01 06:28:09;;;;;;;81.17;38.43;;;;;;;-2.07;77.69;99386.67;2177458;81;21141;-79
2020/12/01 06:31:10;;;;;;;73.03;37.33;;;;;;;-2.06;77.74;99388.84;2175702;81;21268;-79
2020/12/01 06:34:11;;;;;;;69.67;33.27;;;;;;;-2.04;77.71;99385.60;2176289;82;21252;-80
2020/12/01 06:37:12;;;;;;;76.40;37.13;;;;;;;-2.02;77.68;99396.83;2176644;81;21292;-78
2020/12/01 06:40:13;;;;;;;71.70;33.40;;;;;;;-1.99;77.50;99402.16;2177188;81;21244;-81
2020/12/01 06:43:14;;;;;;;66.20;34.23;;;;;;;-2.00;77.54;99395.27;2175961;81;21814;-78
2020/12/01 06:46:15;;;;;;;67.13;32.07;;;;;;;-2.00;77.47;99390.54;2176771;81;21261;-77
2020/12/01 06:49:16;;;;;;;76.17;36.80;;;;;;;-1.98;77.51;99386.41;2176072;81;22130;-77
2020/12/01 06:52:17;;;;;;;72.97;32.47;;;;;;;-1.96;77.42;99380.62;2176065;81;21262;-78
2020/12/01 06:55:19;;;;;;;70.40;34.40;;;;;;;-1.92;77.35;99380.05;2159706;81;21163;-77
2020/12/01 06:58:20;;;;;;;59.10;30.03;;;;;;;-1.86;77.25;99378.30;2157981;82;21265;-77
2020/12/01 07:01:21;;;;;;;139.03;68.93;;;;;;;-1.80;77.29;99382.95;2158514;82;21142;-78
2020/12/01 07:04:22;;;;;;;58.97;31.00;;;;;;;-1.73;77.36;99389.02;2158728;82;21524;-79
2020/12/01 07:07:23;;;;;;;58.77;30.27;;;;;;;-1.67;77.15;99388.16;2159888;82;21138;-79
2020/12/01 07:10:24;;;;;;;64.03;32.00;;;;;;;-1.67;77.07;99385.59;2159101;82;21639;-78
2020/12/01 07:13:25;;;;;;;52.47;28.17;;;;;;;-1.59;77.07;99384.84;2158203;82;21257;-77
2020/12/01 07:16:27;;;;;;;46.20;26.33;;;;;;;-1.53;76.86;99387.42;2159044;82;21269;-77
2020/12/01 07:19:28;;;;;;;54.13;29.47;;;;;;;-1.50;76.80;99387.62;2159051;82;21285;-78
2020/12/01 07:22:29;;;;;;;62.00;30.43;;;;;;;-1.46;76.80;99383.20;2159023;82;21099;-78
2020/12/01 07:25:30;;;;;;;54.53;28.67;;;;;;;-1.44;76.76;99386.76;2159340;82;21142;-78
2020/12/01 07:28:31;;;;;;;49.63;27.10;;;;;;;-1.36;76.76;99389.44;2159510;82;21301;-78
2020/12/01 07:31:33;;;;;;;62.90;28.60;;;;;;;-1.32;76.64;99385.02;2157939;82;21212;-79
2020/12/01 07:34:34;;;;;;;56.23;27.83;;;;;;;-1.26;76.64;99384.53;2158165;82;21257;-77
2020/12/01 07:37:35;;;;;;;61.17;28.80;;;;;;;-1.20;76.60;99384.94;2159668;82;21107;-78
2020/12/01 07:40:36;;;;;;;51.03;27.13;;;;;;;-1.12;76.46;99382.88;2160126;82;21254;-78
2020/12/01 07:43:37;;;;;;;47.10;25.90;;;;;;;-1.06;76.40;99387.12;2159752;82;21150;-78
2020/12/01 07:46:41;;;;;;;46.63;24.57;;;;;;;-1.00;76.32;99393.94;2159193;82;21265;-78
2020/12/01 07:49:44;;;;;;;49.67;26.63;;;;;;;-0.96;76.34;99386.55;2158178;82;21480;-78
2020/12/01 07:52:47;;;;;;;49.57;24.20;;;;;;;-0.88;76.29;99394.73;2158444;82;21783;-79
2020/12/01 07:55:48;;;;;;;49.13;27.70;;;;;;;-0.80;77.16;99387.58;2159395;82;21244;-80
2020/12/01 07:58:49;;;;;;;48.47;24.70;;;;;;;-0.60;76.04;99393.98;2159293;82;21285;-79
2020/12/01 08:01:50;;;;;;;41.67;24.07;;;;;;;-0.58;75.78;99403.95;2158379;82;21273;-79
2020/12/01 08:04:51;;;;;;;107.10;28.77;;;;;;;-0.55;75.49;99407.98;2158520;82;21320;-82
2020/12/01 08:07:52;;;;;;;46.53;26.77;;;;;;;-0.47;75.80;99406.41;2158870;82;21257;-80
2020/12/01 08:10:53;;;;;;;41.53;21.87;;;;;;;-0.36;75.65;99413.50;2158308;82;21293;-79
2020/12/01 08:13:54;;;;;;;38.17;22.37;;;;;;;-0.29;75.29;99409.64;2158086;82;21572;-80
2020/12/01 08:16:56;;;;;;;46.33;24.73;;;;;;;-0.25;75.10;99418.91;2157673;82;21268;-79
2020/12/01 08:19:57;;;;;;;39.40;22.47;;;;;;;-0.19;75.11;99414.56;2158449;82;21246;-80
2020/12/01 08:22:58;;;;;;;44.20;24.67;;;;;;;-0.11;74.97;99418.50;2158703;82;21257;-79
2020/12/01 08:25:59;;;;;;;46.40;25.57;;;;;;;0.01;74.93;99422.25;2159311;82;21616;-80
2020/12/01 08:29:00;;;;;;;46.07;23.67;;;;;;;0.16;74.84;99418.95;2159558;82;21305;-79
2020/12/01 08:32:01;;;;;;;42.40;25.10;;;;;;;0.26;74.18;99421.30;2159858;82;21253;-79
2020/12/01 08:35:04;;;;;;;31.20;18.90;;;;;;;0.30;74.08;99423.25;2159716;82;21280;-79
2020/12/01 08:38:05;;;;;;;37.97;21.90;;;;;;;0.33;73.87;99428.97;2160194;82;21118;-79
2020/12/01 08:41:06;;;;;;;41.97;24.27;;;;;;;0.31;73.67;99425.03;2159079;82;21103;-78
2020/12/01 08:44:07;;;;;;;38.90;22.57;;;;;;;0.39;73.88;99429.74;2158241;82;21234;-78
2020/12/01 08:47:08;;;;;;;44.63;23.70;;;;;;;0.51;73.75;99427.91;2161697;82;21131;-80
2020/12/01 08:50:09;;;;;;;37.43;21.47;;;;;;;0.58;73.48;99434.80;2159978;82;21603;-79
2020/12/01 08:53:10;;;;;;;38.30;22.23;;;;;;;0.71;73.53;99427.83;2159635;81;21154;-79
2020/12/01 08:56:12;;;;;;;35.20;22.80;;;;;;;0.79;73.06;99430.05;2159455;82;21095;-80
2020/12/01 08:59:13;;;;;;;36.70;22.37;;;;;;;0.79;72.72;99427.88;2159307;82;21615;-80
2020/12/01 09:02:14;;;;;;;36.67;22.07;;;;;;;0.84;73.08;99434.17;2159154;82;21241;-79
2020/12/01 09:05:15;;;;;;;37.97;21.60;;;;;;;0.98;72.94;99440.16;2158976;82;21249;-80
2020/12/01 09:08:35;;;;;;;65.80;41.87;;;;;;;0.99;72.02;99438.97;2157022;82;21249;-77
2020/12/01 09:15:02;;;;;;;38.20;22.07;;;;;;;1.12;72.19;99432.86;2159091;82;21245;-82
2020/12/01 09:18:13;;;;;;;45.00;23.60;;;;;;;1.15;72.03;99422.34;2158400;82;21245;-80
2020/12/01 09:24:25;;;;;;;38.10;20.37;;;;;;;1.35;71.73;99429.03;2157397;82;21248;-78
2020/12/01 09:27:26;;;;;;;38.67;21.60;;;;;;;1.38;71.47;99428.81;2159046;82;21258;-78
2020/12/01 09:30:28;;;;;;;34.47;21.70;;;;;;;1.42;71.45;99430.76;2158181;82;21325;-77
2020/12/01 09:33:32;;;;;;;36.33;21.97;;;;;;;1.45;71.55;99425.78;2157666;82;21222;-78
2020/12/01 09:36:33;;;;;;;33.23;19.67;;;;;;;1.54;71.43;99421.16;2158249;82;21436;-76
2020/12/01 09:39:35;;;;;;;40.10;22.20;;;;;;;1.66;70.86;99421.36;2158993;82;21551;-79
2020/12/01 09:42:37;;;;;;;45.27;23.17;;;;;;;1.69;70.97;99415.09;2158800;82;21292;-79
2020/12/01 09:45:40;;;;;;;30.10;19.37;;;;;;;1.84;71.06;99413.41;2158087;82;21380;-78
2020/12/01 09:48:43;;;;;;;36.37;22.60;;;;;;;1.87;69.90;99413.17;2159663;82;21430;-78
2020/12/01 09:51:54;;;;;;;36.37;21.87;;;;;;;1.90;70.29;99401.75;2138758;82;21065;-78
2020/12/01 09:54:53;;;;;;;38.30;22.10;;;;;;;1.88;69.67;99400.78;2167265;81;21256;-77
2020/12/01 09:57:58;;;;;;;33.77;22.13;;;;;;;1.89;69.75;99398.69;2177138;82;21260;-79
2020/12/01 10:07:54;;;;;;;39.40;22.63;;;;;;;2.04;69.32;99384.47;2176797;81;21256;-79
2020/12/01 10:11:26;;;;;;;33.93;22.00;;;;;;;2.11;69.19;99379.25;2175744;82;21260;-78
2020/12/01 10:17:57;;;;;;;35.47;21.57;;;;;;;2.07;68.71;99383.34;2143582;82;21487;-81
2020/12/01 10:21:33;;;;;;;93.00;23.83;;;;;;;2.01;68.76;99375.70;2176508;82;21248;-78
2020/12/01 10:34:48;;;;;;;36.90;20.80;;;;;;;2.70;68.69;99372.09;2062513;82;21197;-76
2020/12/01 10:37:49;;;;;;;36.03;21.10;;;;;;;2.66;68.00;99370.56;2176892;81;21416;-77
2020/12/01 10:40:50;;;;;;;44.77;21.00;;;;;;;2.64;67.63;99370.89;2176655;81;21269;-77
2020/12/01 10:43:51;;;;;;;34.20;21.27;;;;;;;2.58;67.62;99370.14;2175775;81;21612;-77
2020/12/01 10:46:52;;;;;;;33.67;20.37;;;;;;;2.56;67.99;99371.34;2176830;82;21237;-77
2020/12/01 10:49:54;;;;;;;108.83;23.50;;;;;;;2.56;67.77;99371.75;2177026;81;21273;-77
2020/12/01 10:52:54;;;;;;;35.20;22.33;;;;;;;2.59;67.69;99375.78;2176079;81;21426;-77
2020/12/01 10:55:56;;;;;;;31.23;21.63;;;;;;;2.64;67.77;99374.76;2163077;81;21253;-77
2020/12/01 10:58:57;;;;;;;31.53;20.73;;;;;;;2.67;67.83;99373.22;2159296;82;21247;-78
2020/12/01 11:01:58;;;;;;;152.20;28.80;;;;;;;2.68;66.85;99374.99;2160271;82;21475;-81
2020/12/01 11:04:59;;;;;;;30.47;19.63;;;;;;;2.67;67.71;99377.49;2159529;82;21143;-81
2020/12/01 11:08:00;;;;;;;36.40;21.73;;;;;;;2.66;66.64;99382.17;2159697;82;21708;-78
2020/12/01 11:11:02;;;;;;;31.07;19.97;;;;;;;2.62;66.93;99385.39;2159130;82;21309;-78
2020/12/01 11:14:03;;;;;;;26.73;17.97;;;;;;;2.59;66.86;99376.18;2158723;82;21253;-78
2020/12/01 11:17:04;;;;;;;30.37;20.70;;;;;;;2.55;66.51;99377.72;2158522;82;21241;-79
2020/12/01 11:20:05;;;;;;;30.70;19.40;;;;;;;2.49;66.77;99376.99;2160075;82;21246;-79
2020/12/01 11:23:06;;;;;;;32.20;19.63;;;;;;;2.45;66.77;99372.89;2160078;82;21261;-80
2020/12/01 11:26:07;;;;;;;26.83;17.93;;;;;;;2.43;66.85;99374.50;2159809;82;21130;-78
2020/12/01 11:29:08;;;;;;;33.20;17.20;;;;;;;2.70;66.95;99369.91;2159051;82;21309;-78
2020/12/01 11:32:09;;;;;;;29.37;20.73;;;;;;;2.74;66.11;99367.57;2159328;82;21289;-79
2020/12/01 11:35:11;;;;;;;116.20;67.23;;;;;;;2.71;66.22;99360.09;2159599;82;21296;-79
2020/12/01 11:38:12;;;;;;;34.37;21.77;;;;;;;2.70;66.28;99360.89;2160806;82;21106;-80
2020/12/01 11:41:14;;;;;;;35.23;21.10;;;;;;;2.77;66.54;99360.39;2160493;82;21135;-78
2020/12/01 11:44:16;;;;;;;33.03;20.93;;;;;;;2.78;65.98;99357.01;2160358;82;21114;-78
2020/12/01 11:47:17;;;;;;;31.77;21.13;;;;;;;2.70;66.05;99355.33;2159987;82;21242;-78
2020/12/01 11:50:18;;;;;;;38.27;19.00;;;;;;;2.71;65.58;99349.38;2158961;82;21134;-79
2020/12/01 11:53:19;;;;;;;33.03;20.73;;;;;;;2.72;66.02;99354.13;2159929;82;21464;-79
2020/12/01 11:56:20;;;;;;;33.40;21.30;;;;;;;2.75;65.98;99348.72;2174695;82;21146;-80
2020/12/01 11:59:21;;;;;;;32.60;20.53;;;;;;;2.71;65.28;99347.20;2177922;81;21240;-78
2020/12/01 12:02:22;;;;;;;35.50;21.00;;;;;;;2.99;65.84;99351.64;2177153;81;21256;-78
2020/12/01 12:05:23;;;;;;;31.70;20.63;;;;;;;2.97;65.68;99352.37;2177038;81;21241;-79
2020/12/01 12:08:25;;;;;;;29.70;19.90;;;;;;;2.96;65.75;99351.89;2177392;81;21245;-78
2020/12/01 12:11:26;;;;;;;36.63;21.03;;;;;;;2.96;65.56;99348.91;2177668;81;21491;-78
2020/12/01 12:14:27;;;;;;;29.80;19.87;;;;;;;2.97;65.67;99349.79;2177305;81;21237;-78
2020/12/01 12:17:28;;;;;;;33.57;19.77;;;;;;;2.98;65.94;99355.02;2177025;81;21240;-79
2020/12/01 12:20:29;;;;;;;32.40;21.53;;;;;;;2.94;64.59;99351.81;2177250;81;21244;-78
2020/12/01 12:23:30;;;;;;;89.40;26.40;;;;;;;2.84;65.02;99353.05;2176494;82;21229;-78
2020/12/01 12:26:31;;;;;;;32.10;20.03;;;;;;;2.87;64.44;99356.19;2175617;81;21257;-79
2020/12/01 12:29:32;;;;;;;29.70;19.83;;;;;;;2.82;64.80;99353.78;2176372;81;21276;-78
2020/12/01 12:32:34;;;;;;;30.73;19.90;;;;;;;2.77;64.84;99353.95;2175991;82;21138;-77
2020/12/01 12:35:35;;;;;;;33.93;20.50;;;;;;;2.71;64.96;99353.64;2175803;81;21256;-78
2020/12/01 12:38:36;;;;;;;32.43;20.03;;;;;;;2.68;64.00;99351.80;2176192;81;21233;-78
2020/12/01 12:41:37;;;;;;;32.00;19.37;;;;;;;2.64;64.67;99356.31;2175869;82;21224;-77
2020/12/01 12:44:38;;;;;;;28.83;19.10;;;;;;;2.65;64.52;99354.62;2175773;81;21571;-79
2020/12/01 12:47:39;;;;;;;29.17;19.00;;;;;;;2.62;64.53;99357.92;2176076;81;21291;-78
2020/12/01 12:50:40;;;;;;;28.73;19.30;;;;;;;2.60;64.76;99356.05;2175988;82;21280;-78
2020/12/01 12:53:41;;;;;;;31.27;18.73;;;;;;;2.60;64.99;99356.96;2175531;81;21248;-78
2020/12/01 12:56:42;;;;;;;27.17;17.90;;;;;;;2.63;65.10;99358.81;2175571;81;21264;-78
2020/12/01 12:59:44;;;;;;;30.20;18.97;;;;;;;2.61;64.86;99362.59;2175560;81;21240;-78
2020/12/01 13:02:45;;;;;;;32.30;20.87;;;;;;;2.54;64.97;99353.63;2175199;81;21700;-77
2020/12/01 13:05:46;;;;;;;30.03;19.07;;;;;;;2.49;65.04;99355.49;2173756;81;21220;-78
2020/12/01 13:08:47;;;;;;;28.17;18.70;;;;;;;2.44;65.37;99351.80;2172945;81;21322;-78
2020/12/01 13:11:48;;;;;;;28.00;18.50;;;;;;;2.38;65.67;99353.66;2174111;81;21507;-78
2020/12/01 13:14:49;;;;;;;109.70;68.23;;;;;;;2.35;66.33;99354.78;2175396;81;21245;-76
2020/12/01 13:17:50;;;;;;;31.83;20.70;;;;;;;2.34;66.71;99356.88;2175146;81;21256;-75
2020/12/01 13:20:51;;;;;;;32.47;20.30;;;;;;;2.30;67.03;99357.52;2177090;81;21122;-77
2020/12/01 13:23:52;;;;;;;34.77;19.43;;;;;;;2.20;67.12;99363.00;2175941;81;21233;-78
2020/12/01 13:26:54;;;;;;;33.03;20.70;;;;;;;2.10;67.34;99357.76;2175746;82;21257;-79
2020/12/01 13:29:55;;;;;;;30.67;19.43;;;;;;;2.04;67.55;99361.30;2174883;81;21272;-79
2020/12/01 13:32:56;;;;;;;33.10;21.07;;;;;;;1.95;67.91;99362.50;2176001;82;21543;-78
2020/12/01 13:35:57;;;;;;;29.33;20.40;;;;;;;1.83;67.74;99370.44;2175181;81;21249;-78
2020/12/01 13:38:58;;;;;;;32.97;20.73;;;;;;;1.76;68.29;99370.91;2176051;81;21610;-78
2020/12/01 13:41:59;;;;;;;34.90;20.80;;;;;;;1.67;68.47;99380.27;2175991;81;21246;-78
2020/12/01 13:45:00;;;;;;;37.13;21.03;;;;;;;1.56;68.52;99382.65;2176820;81;21240;-79
2020/12/01 13:48:02;;;;;;;32.77;19.97;;;;;;;1.45;68.78;99383.34;2176866;81;21122;-80
2020/12/01 13:51:03;;;;;;;35.03;21.33;;;;;;;1.35;68.93;99384.91;2176869;81;21288;-78
2020/12/01 13:54:04;;;;;;;33.43;21.07;;;;;;;1.23;69.14;99386.39;2175880;81;21265;-77
2020/12/01 13:57:05;;;;;;;35.77;22.17;;;;;;;1.11;69.25;99387.38;2177241;81;21149;-78
2020/12/01 14:00:06;;;;;;;33.23;20.30;;;;;;;1.03;69.69;99391.19;2177156;81;21136;-79
2020/12/01 14:03:07;;;;;;;37.30;22.87;;;;;;;0.94;69.70;99387.69;2176848;81;21589;-78
2020/12/01 14:06:08;;;;;;;41.93;22.80;;;;;;;0.87;69.90;99385.56;2174773;81;21248;-78
2020/12/01 14:09:09;;;;;;;37.23;22.23;;;;;;;0.80;70.24;99383.39;2175053;82;21273;-78
2020/12/01 14:12:11;;;;;;;38.43;23.27;;;;;;;0.76;70.32;99390.44;2176263;82;21236;-78
2020/12/01 14:15:13;;;;;;;40.13;23.90;;;;;;;0.75;70.45;99397.27;2177647;81;21134;-80
2020/12/01 14:18:14;;;;;;;39.83;23.77;;;;;;;0.67;70.50;99396.31;2177326;81;21248;-79
2020/12/01 14:21:15;;;;;;;38.37;23.43;;;;;;;0.58;70.54;99396.27;2176919;81;21139;-78
2020/12/01 14:24:16;;;;;;;40.63;23.93;;;;;;;0.49;70.79;99400.85;2176833;81;21236;-79